createdAt,value
2018-09-12T00:02:02.002Z,48.60
2018-09-12T00:04:30.552Z,48.50
2018-09-12T00:06:59.283Z,49.20
2018-09-12T00:09:27.870Z,48.70
2018-09-12T00:11:56.412Z,48.70
2018-09-12T00:14:24.975Z,48.80
2018-09-12T00:16:53.525Z,49.00
2018-09-12T00:19:22.780Z,49.00
2018-09-12T00:21:51.273Z,49.00
2018-09-12T00:24:19.995Z,49.00
2018-09-12T00:26:49.281Z,49.10
2018-09-12T00:29:17.978Z,49.20
2018-09-12T00:31:46.576Z,49.20
2018-09-12T00:34:15.182Z,49.30
2018-09-12T00:36:44.959Z,49.40
2018-09-12T00:39:13.630Z,49.50
2018-09-12T00:41:42.248Z,49.40
2018-09-12T00:44:10.871Z,49.60
2018-09-12T00:46:39.590Z,49.60
2018-09-12T00:49:08.143Z,49.70
2018-09-12T00:51:38.582Z,49.60
2018-09-12T00:54:07.477Z,49.70
2018-09-12T00:56:36.071Z,49.70
2018-09-12T00:59:04.646Z,49.80
2018-09-12T01:01:33.209Z,49.90
2018-09-12T01:04:01.876Z,49.90
2018-09-12T01:06:30.888Z,49.90
2018-09-12T01:08:59.458Z,50.00
2018-09-12T01:11:27.951Z,50.00
2018-09-12T01:13:56.809Z,50.60
2018-09-12T01:16:25.404Z,50.10
2018-09-12T01:18:54.285Z,50.20
2018-09-12T01:21:22.820Z,50.20
2018-09-12T01:23:51.345Z,50.20
2018-09-12T01:26:19.892Z,50.20
2018-09-12T01:28:48.607Z,50.20
2018-09-12T01:31:17.160Z,50.20
2018-09-12T01:33:45.735Z,50.20
2018-09-12T01:36:14.321Z,50.20
2018-09-12T01:38:42.901Z,50.40
2018-09-12T01:41:11.537Z,50.40
2018-09-12T01:43:40.275Z,50.40
2018-09-12T01:46:08.890Z,50.40
2018-09-12T01:48:39.078Z,50.40
2018-09-12T01:51:07.757Z,50.50
2018-09-12T01:53:36.263Z,50.50
2018-09-12T01:56:04.795Z,50.60
2018-09-12T01:58:33.570Z,50.70
2018-09-12T02:01:02.107Z,50.80
2018-09-12T02:03:30.834Z,50.80
2018-09-12T02:05:59.325Z,50.80
2018-09-12T02:08:27.820Z,51.40
2018-09-12T02:10:56.318Z,51.00
2018-09-12T02:13:25.453Z,51.10
2018-09-12T02:15:53.946Z,51.30
2018-09-12T02:18:22.467Z,51.30
2018-09-12T02:20:51.535Z,51.30
2018-09-12T02:23:20.152Z,51.30
2018-09-12T02:25:48.809Z,51.40
2018-09-12T02:28:17.684Z,51.70
2018-09-12T02:30:46.414Z,51.80
2018-09-12T02:33:15.340Z,51.70
2018-09-12T02:35:49.293Z,52.00
2018-09-12T02:38:18.429Z,52.20
2018-09-12T02:40:46.999Z,52.10
2018-09-12T02:43:15.637Z,52.10
2018-09-12T02:45:44.460Z,52.20
2018-09-12T02:48:13.064Z,52.30
2018-09-12T02:50:41.643Z,52.40
2018-09-12T02:53:10.149Z,52.30
2018-09-12T02:55:38.854Z,52.40
2018-09-12T02:58:07.376Z,52.50
2018-09-12T03:00:36.242Z,52.60
2018-09-12T03:03:04.722Z,52.70
2018-09-12T03:05:33.215Z,52.80
2018-09-12T03:08:02.530Z,52.80
2018-09-12T03:10:30.934Z,52.70
2018-09-12T03:13:00.902Z,52.90
2018-09-12T03:15:29.510Z,53.00
2018-09-12T03:17:58.052Z,53.00
2018-09-12T03:20:26.923Z,53.10
2018-09-12T03:22:55.352Z,53.10
2018-09-12T03:25:23.980Z,53.20
2018-09-12T03:27:52.626Z,53.20
2018-09-12T03:30:21.157Z,53.20
2018-09-12T03:32:49.696Z,53.30
2018-09-12T03:35:18.361Z,53.30
2018-09-12T03:37:46.909Z,53.30
2018-09-12T03:40:16.605Z,53.30
2018-09-12T03:42:45.091Z,53.40
2018-09-12T03:45:13.694Z,53.50
2018-09-12T03:47:42.223Z,53.70
2018-09-12T03:50:10.773Z,53.70
2018-09-12T03:52:39.444Z,53.70
2018-09-12T03:55:08.058Z,53.80
2018-09-12T03:57:36.540Z,53.90
2018-09-12T04:00:05.868Z,53.90
2018-09-12T04:02:34.981Z,54.00
2018-09-12T04:05:03.597Z,54.00
2018-09-12T04:07:32.189Z,54.00
2018-09-12T04:10:00.799Z,54.10
2018-09-12T04:12:29.584Z,54.10
2018-09-12T04:14:58.096Z,54.10
2018-09-12T04:17:35.471Z,54.20
2018-09-12T04:20:04.257Z,54.20
2018-09-12T04:22:33.305Z,54.20
2018-09-12T04:25:01.859Z,54.30
2018-09-12T04:27:30.789Z,54.40
2018-09-12T04:29:59.594Z,54.50
2018-09-12T04:32:28.091Z,54.50
2018-09-12T04:34:56.738Z,54.50
2018-09-12T04:37:25.348Z,54.60
2018-09-12T04:39:54.510Z,54.60
2018-09-12T04:42:23.034Z,54.70
2018-09-12T04:44:52.227Z,54.80
2018-09-12T04:47:21.147Z,54.90
2018-09-12T04:49:49.762Z,54.80
2018-09-12T04:52:18.414Z,54.90
2018-09-12T04:54:47.175Z,55.00
2018-09-12T04:57:15.657Z,55.00
2018-09-12T04:59:44.257Z,55.10
2018-09-12T05:02:12.861Z,55.20
2018-09-12T05:04:41.373Z,55.20
2018-09-12T05:07:09.916Z,55.30
2018-09-12T05:09:38.855Z,55.40
2018-09-12T05:12:07.388Z,55.50
2018-09-12T05:14:35.983Z,55.60
2018-09-12T05:17:04.571Z,55.70
2018-09-12T05:19:33.035Z,55.90
2018-09-12T05:22:01.607Z,56.00
2018-09-12T05:24:30.124Z,56.20
2018-09-12T05:26:58.618Z,56.20
2018-09-12T05:29:27.145Z,56.20
2018-09-12T05:31:55.689Z,56.40
2018-09-12T05:34:24.258Z,56.50
2018-09-12T05:36:53.207Z,56.60
2018-09-12T05:39:21.732Z,56.80
2018-09-12T05:41:50.398Z,56.70
2018-09-12T05:44:19.047Z,57.00
2018-09-12T05:46:48.881Z,57.10
2018-09-12T05:49:17.544Z,57.20
2018-09-12T05:51:46.157Z,57.20
2018-09-12T05:54:14.823Z,57.10
2018-09-12T05:56:43.495Z,57.20
2018-09-12T05:59:12.053Z,57.20
2018-09-12T06:01:40.785Z,57.20
2018-09-12T06:04:09.269Z,57.20
2018-09-12T06:06:39.033Z,57.40
2018-09-12T06:09:08.973Z,57.30
2018-09-12T06:11:37.721Z,57.30
2018-09-12T06:14:07.089Z,57.30
2018-09-12T06:16:35.646Z,57.20
2018-09-12T06:19:04.235Z,57.20
2018-09-12T06:21:32.772Z,57.80
2018-09-12T06:24:01.797Z,57.80
2018-09-12T06:26:30.351Z,57.00
2018-09-12T06:28:58.976Z,56.90
2018-09-12T06:31:27.559Z,57.00
2018-09-12T06:33:56.134Z,56.80
2018-09-12T06:36:24.679Z,56.80
2018-09-12T06:38:53.220Z,56.70
2018-09-12T06:41:22.457Z,56.70
2018-09-12T06:43:51.205Z,56.70
2018-09-12T06:46:20.305Z,56.60
2018-09-12T06:48:48.851Z,56.70
2018-09-12T06:51:17.635Z,56.50
2018-09-12T06:53:46.231Z,56.50
2018-09-12T06:56:15.886Z,56.40
2018-09-12T06:58:44.620Z,56.30
2018-09-12T07:01:13.357Z,56.20
2018-09-12T07:03:41.964Z,56.10
2018-09-12T07:06:11.103Z,56.10
2018-09-12T07:08:40.126Z,56.00
2018-09-12T07:11:08.684Z,56.00
2018-09-12T07:13:37.976Z,55.80
2018-09-12T07:16:06.525Z,55.80
2018-09-12T07:18:35.108Z,55.80
2018-09-12T07:21:03.935Z,55.70
2018-09-12T07:23:32.661Z,56.10
2018-09-12T07:26:01.361Z,55.50
2018-09-12T07:28:29.898Z,56.10
2018-09-12T07:30:58.384Z,55.40
2018-09-12T07:33:26.931Z,55.20
2018-09-12T07:35:55.556Z,55.20
2018-09-12T07:38:24.063Z,55.40
2018-09-12T07:40:52.835Z,55.10
2018-09-12T07:43:21.468Z,55.10
2018-09-12T07:45:49.978Z,55.30
2018-09-12T07:48:18.634Z,54.60
2018-09-12T07:50:49.397Z,54.50
2018-09-12T07:53:18.802Z,54.40
2018-09-12T07:55:47.644Z,54.30
2018-09-12T07:58:16.388Z,54.10
2018-09-12T08:00:44.942Z,54.00
2018-09-12T08:04:52.514Z,53.90
2018-09-12T08:07:21.558Z,53.70
2018-09-12T08:09:50.194Z,53.40
2018-09-12T08:12:18.851Z,53.30
2018-09-12T08:14:48.656Z,53.10
2018-09-12T08:17:18.881Z,53.10
2018-09-12T08:19:47.586Z,52.70
2018-09-12T08:22:16.119Z,52.60
2018-09-12T08:24:45.033Z,52.40
2018-09-12T08:27:14.102Z,52.30
2018-09-12T08:29:43.876Z,52.20
2018-09-12T08:32:13.664Z,52.10
2018-09-12T08:34:43.592Z,52.00
2018-09-12T08:37:12.299Z,51.80
2018-09-12T08:39:42.245Z,51.60
2018-09-12T08:42:11.304Z,51.50
2018-09-12T08:44:40.355Z,51.30
2018-09-12T08:47:10.325Z,51.10
2018-09-12T08:49:39.967Z,50.80
2018-09-12T08:52:08.501Z,50.70
2018-09-12T08:54:37.308Z,50.50
2018-09-12T08:57:05.897Z,50.40
2018-09-12T08:59:34.394Z,50.10
2018-09-12T09:02:03.304Z,49.80
2018-09-12T09:04:32.049Z,49.60
2018-09-12T09:07:00.596Z,49.40
2018-09-12T09:09:29.443Z,49.40
2018-09-12T09:11:58.340Z,49.00
2018-09-12T09:14:26.946Z,49.30
2018-09-12T09:16:55.696Z,48.50
2018-09-12T09:19:24.210Z,48.40
2018-09-12T09:21:52.896Z,48.40
2018-09-12T09:24:21.416Z,48.10
2018-09-12T09:26:50.016Z,47.70
2018-09-12T09:29:19.121Z,47.40
2018-09-12T09:31:47.603Z,47.40
2018-09-12T09:34:17.451Z,47.50
2018-09-12T09:36:46.589Z,47.10
2018-09-12T09:39:15.226Z,46.80
2018-09-12T09:41:44.279Z,46.50
2018-09-12T09:44:12.843Z,46.20
2018-09-12T09:46:41.476Z,46.30
2018-09-12T09:49:10.069Z,46.00
2018-09-12T09:51:39.737Z,45.80
2018-09-12T09:54:08.336Z,45.50
2018-09-12T09:56:36.835Z,45.50
2018-09-12T09:59:05.392Z,45.20
2018-09-12T10:02:38.353Z,45.20
2018-09-12T10:05:13.049Z,44.70
2018-09-12T10:07:46.766Z,44.50
2018-09-12T10:10:15.311Z,44.50
2018-09-12T10:12:46.085Z,44.20
2018-09-12T10:15:17.468Z,43.50
2018-09-12T10:17:46.727Z,42.90
2018-09-12T10:20:15.496Z,42.50
2018-09-12T10:22:44.119Z,42.20
2018-09-12T10:25:12.878Z,42.00
2018-09-12T10:27:41.703Z,42.00
2018-09-12T10:30:10.717Z,41.80
2018-09-12T10:32:39.363Z,41.80
2018-09-12T10:35:07.860Z,41.60
2018-09-12T10:37:37.037Z,41.70
2018-09-12T10:40:08.736Z,41.80
2018-09-12T10:42:37.294Z,41.80
2018-09-12T10:45:07.074Z,41.60
2018-09-12T10:47:35.940Z,41.00
2018-09-12T10:50:04.583Z,41.20
2018-09-12T10:52:33.106Z,41.10
2018-09-12T10:55:02.253Z,40.90
2018-09-12T10:57:30.801Z,41.30
2018-09-12T10:59:59.366Z,41.30
2018-09-12T11:02:27.909Z,40.90
2018-09-12T11:04:56.770Z,41.00
2018-09-12T11:07:25.325Z,40.40
2018-09-12T11:09:54.015Z,41.10
2018-09-12T11:12:22.497Z,40.80
2018-09-12T11:14:51.393Z,40.20
2018-09-12T11:17:19.975Z,40.20
2018-09-12T11:19:48.615Z,40.10
2018-09-12T11:22:17.280Z,40.50
2018-09-12T11:24:46.733Z,40.50
2018-09-12T11:27:16.079Z,40.70
2018-09-12T11:29:45.002Z,40.50
2018-09-12T11:32:14.120Z,40.20
2018-09-12T11:34:42.930Z,40.00
2018-09-12T11:37:12.974Z,39.90
2018-09-12T11:39:41.700Z,40.00
2018-09-12T11:42:10.597Z,40.40
2018-09-12T11:44:39.253Z,39.50
2018-09-12T11:47:07.868Z,40.00
2018-09-12T11:49:36.526Z,39.70
2018-09-12T11:52:05.150Z,39.50
2018-09-12T11:54:33.676Z,39.20
2018-09-12T11:57:02.209Z,39.40
2018-09-12T11:59:30.819Z,39.40
2018-09-12T12:01:59.362Z,39.20
2018-09-12T12:04:27.883Z,39.60
2018-09-12T12:06:56.911Z,38.40
2018-09-12T12:09:25.432Z,39.00
2018-09-12T12:11:53.926Z,39.10
2018-09-12T12:14:23.230Z,39.10
2018-09-12T12:16:51.775Z,38.70
2018-09-12T12:19:20.404Z,38.30
2018-09-12T12:21:49.006Z,38.20
2018-09-12T12:24:18.095Z,37.70
2018-09-12T12:26:47.029Z,37.50
2018-09-12T12:29:15.543Z,37.80
2018-09-12T12:31:44.495Z,37.40
2018-09-12T12:34:13.482Z,37.40
2018-09-12T12:36:42.611Z,37.60
2018-09-12T12:39:12.355Z,37.80
2018-09-12T12:41:40.985Z,38.40
2018-09-12T12:44:09.617Z,38.40
2018-09-12T12:46:38.244Z,38.40
2018-09-12T12:49:06.851Z,38.50
2018-09-12T12:51:35.908Z,38.20
2018-09-12T12:54:04.521Z,37.90
2018-09-12T12:56:33.148Z,37.80
2018-09-12T12:59:01.699Z,37.20
2018-09-12T13:01:30.259Z,37.40
2018-09-12T13:03:58.827Z,37.40
2018-09-12T13:06:27.749Z,37.40
2018-09-12T13:08:56.631Z,37.80
2018-09-12T13:11:25.565Z,38.00
2018-09-12T13:13:54.199Z,36.90
2018-09-12T13:16:22.859Z,36.90
2018-09-12T13:18:51.461Z,37.00
2018-09-12T13:21:20.080Z,37.20
2018-09-12T13:23:48.652Z,37.20
2018-09-12T13:26:17.272Z,37.10
2018-09-12T13:28:45.959Z,37.10
2018-09-12T13:31:14.834Z,37.10
2018-09-12T13:33:43.485Z,36.90
2018-09-12T13:36:13.120Z,37.10
2018-09-12T13:38:42.021Z,36.80
2018-09-12T13:41:10.666Z,36.40
2018-09-12T13:43:39.446Z,36.80
2018-09-12T13:46:08.286Z,36.90
2018-09-12T13:48:37.015Z,37.00
2018-09-12T13:51:05.608Z,36.20
2018-09-12T13:53:34.131Z,36.80
2018-09-12T13:56:02.758Z,36.20
2018-09-12T13:58:31.264Z,36.60
2018-09-12T14:00:59.981Z,35.90
2018-09-12T14:03:28.741Z,35.20
2018-09-12T14:05:57.305Z,35.10
2018-09-12T14:08:25.854Z,35.10
2018-09-12T14:10:54.385Z,34.80
2018-09-12T14:13:22.912Z,34.80
2018-09-12T14:15:51.742Z,34.50
2018-09-12T14:18:20.749Z,33.50
2018-09-12T14:20:49.677Z,32.70
2018-09-12T14:23:18.967Z,33.00
2018-09-12T14:25:47.497Z,33.50
2018-09-12T14:28:16.206Z,33.10
2018-09-12T14:30:44.822Z,32.90
2018-09-12T14:33:13.502Z,32.10
2018-09-12T14:35:42.136Z,32.20
2018-09-12T14:38:11.118Z,31.10
2018-09-12T14:40:40.484Z,32.20
2018-09-12T14:43:09.024Z,32.00
2018-09-12T14:45:37.629Z,31.60
2018-09-12T14:48:06.196Z,31.70
2018-09-12T14:50:34.758Z,31.50
2018-09-12T14:53:03.409Z,31.20
2018-09-12T14:55:31.984Z,31.00
2018-09-12T14:58:00.783Z,30.60
2018-09-12T15:00:29.451Z,30.20
2018-09-12T15:02:59.079Z,30.90
2018-09-12T15:05:27.826Z,30.00
2018-09-12T15:07:57.198Z,30.30
2018-09-12T15:10:26.449Z,31.00
2018-09-12T15:12:54.953Z,31.20
2018-09-12T15:15:23.574Z,31.10
2018-09-12T15:17:52.306Z,30.50
2018-09-12T15:20:20.790Z,30.80
2018-09-12T15:22:49.931Z,30.70
2018-09-12T15:25:18.534Z,31.10
2018-09-12T15:27:47.207Z,31.40
2018-09-12T15:30:18.442Z,31.70
2018-09-12T15:32:46.970Z,31.50
2018-09-12T15:35:15.843Z,31.40
2018-09-12T15:37:44.948Z,31.50
2018-09-12T15:40:14.141Z,34.40
2018-09-12T15:42:43.304Z,37.10
2018-09-12T15:45:11.886Z,38.80
2018-09-12T15:47:40.719Z,39.90
2018-09-12T15:50:09.259Z,40.70
2018-09-12T15:52:39.130Z,41.60
2018-09-12T15:55:07.667Z,42.30
2018-09-12T15:57:36.323Z,43.00
2018-09-12T16:00:05.148Z,43.70
2018-09-12T16:02:33.845Z,43.90
2018-09-12T16:05:02.459Z,44.30
2018-09-12T16:07:31.002Z,44.50
2018-09-12T16:09:59.539Z,45.50
2018-09-12T16:12:28.542Z,46.00
2018-09-12T16:14:57.125Z,46.70
2018-09-12T16:17:26.319Z,47.20
2018-09-12T16:19:55.032Z,47.70
2018-09-12T16:22:23.740Z,48.10
2018-09-12T16:24:52.239Z,48.40
2018-09-12T16:27:21.240Z,48.60
2018-09-12T16:29:49.854Z,48.60
2018-09-12T16:32:18.452Z,48.90
2018-09-12T16:34:48.355Z,49.10
2018-09-12T16:37:16.952Z,49.50
2018-09-12T16:39:46.225Z,49.50
2018-09-12T16:42:14.818Z,49.60
2018-09-12T16:44:43.389Z,50.40
2018-09-12T16:47:12.043Z,49.80
2018-09-12T16:49:41.200Z,49.80
2018-09-12T16:52:10.336Z,49.80
2018-09-12T16:54:40.324Z,49.90
2018-09-12T16:57:08.896Z,50.20
2018-09-12T16:59:38.065Z,50.80
2018-09-12T17:02:06.632Z,51.20
2018-09-12T17:04:35.221Z,51.40
2018-09-12T17:07:03.825Z,52.20
2018-09-12T17:09:32.575Z,51.90
2018-09-12T17:12:01.538Z,52.10
2018-09-12T17:14:30.067Z,52.40
2018-09-12T17:16:58.661Z,52.30
2018-09-12T17:19:27.241Z,52.40
2018-09-12T17:21:55.884Z,52.40
2018-09-12T17:24:24.493Z,53.00
2018-09-12T17:26:53.037Z,53.20
2018-09-12T17:29:21.605Z,53.40
2018-09-12T17:31:50.207Z,53.80
2018-09-12T17:34:25.516Z,53.90
2018-09-12T17:36:54.010Z,54.00
2018-09-12T17:39:22.479Z,53.90
2018-09-12T17:41:51.043Z,53.90
2018-09-12T17:44:19.722Z,54.00
2018-09-12T17:46:48.374Z,53.90
2018-09-12T17:49:16.890Z,54.70
2018-09-12T17:51:45.837Z,54.10
2018-09-12T17:54:14.586Z,54.30
2018-09-12T17:56:43.220Z,54.40
2018-09-12T17:59:11.796Z,54.50
2018-09-12T18:01:40.716Z,55.30
2018-09-12T18:04:09.245Z,54.60
2018-09-12T18:06:37.867Z,54.60
2018-09-12T18:09:08.514Z,54.50
2018-09-12T18:11:38.032Z,54.70
2018-09-12T18:14:06.558Z,54.80
2018-09-12T18:16:35.083Z,55.00
2018-09-12T18:19:03.598Z,55.10
2018-09-12T18:21:32.188Z,55.10
2018-09-12T18:24:00.743Z,55.20
2018-09-12T18:26:29.274Z,55.10
2018-09-12T18:28:57.879Z,55.20
2018-09-12T18:31:26.463Z,55.30
2018-09-12T18:33:55.367Z,55.30
2018-09-12T18:36:23.881Z,55.50
2018-09-12T18:38:52.365Z,55.60
2018-09-12T18:41:20.939Z,55.70
2018-09-12T18:43:49.778Z,55.90
2018-09-12T18:46:18.289Z,56.10
2018-09-12T18:48:46.963Z,56.20
2018-09-12T18:51:15.488Z,56.40
2018-09-12T18:53:44.158Z,56.50
2018-09-12T18:56:12.712Z,56.70
2018-09-12T18:58:41.278Z,56.70
2018-09-12T19:01:09.765Z,56.70
2018-09-12T19:03:38.766Z,56.80
2018-09-12T19:06:07.308Z,56.80
2018-09-12T19:08:35.886Z,57.00
2018-09-12T19:11:04.423Z,57.00
2018-09-12T19:13:32.955Z,57.10
2018-09-12T19:16:01.475Z,57.20
2018-09-12T19:18:30.093Z,57.50
2018-09-12T19:20:58.600Z,57.50
2018-09-12T19:23:27.540Z,57.80
2018-09-12T19:25:56.052Z,57.90
2018-09-12T19:28:24.605Z,57.70
2018-09-12T19:30:53.131Z,57.70
2018-09-12T19:33:21.668Z,57.70
2018-09-12T19:35:50.201Z,57.60
2018-09-12T19:38:18.763Z,57.80
2018-09-12T19:40:47.776Z,57.70
2018-09-12T19:43:16.567Z,57.70
2018-09-12T19:45:45.802Z,57.60
2018-09-12T19:48:14.330Z,57.70
2018-09-12T19:50:42.926Z,57.80
2018-09-12T19:53:11.438Z,57.60
2018-09-12T19:55:40.136Z,57.60
2018-09-12T19:58:08.697Z,57.50
2018-09-12T20:00:37.212Z,57.40
2018-09-12T20:03:05.958Z,57.20
2018-09-12T20:05:34.492Z,57.10
2018-09-12T20:08:03.001Z,57.00
2018-09-12T20:10:31.679Z,57.00
2018-09-12T20:13:00.238Z,56.90
2018-09-12T20:15:28.737Z,56.90
2018-09-12T20:17:57.237Z,57.10
2018-09-12T20:20:25.771Z,57.00
2018-09-12T20:22:54.349Z,57.00
2018-09-12T20:25:25.384Z,56.80
2018-09-12T20:27:56.332Z,56.70
2018-09-12T20:30:28.314Z,57.10
2018-09-12T20:32:59.458Z,57.10
2018-09-12T20:35:30.123Z,57.10
2018-09-12T20:38:03.100Z,57.30
2018-09-12T20:40:32.959Z,57.40
2018-09-12T20:43:03.036Z,57.60
2018-09-12T20:45:34.187Z,57.60
2018-09-12T20:48:04.140Z,57.70
2018-09-12T20:50:33.933Z,57.70
2018-09-12T20:53:03.814Z,57.80
2018-09-12T20:55:34.887Z,57.80
2018-09-12T20:58:05.540Z,57.70
2018-09-12T21:00:35.736Z,57.70
2018-09-12T21:03:05.431Z,58.10
2018-09-12T21:05:35.737Z,57.80
2018-09-12T21:08:05.603Z,57.90
2018-09-12T21:10:36.852Z,58.00
2018-09-12T21:13:07.552Z,58.00
2018-09-12T21:15:38.308Z,58.10
2018-09-12T21:18:10.549Z,58.30
2018-09-12T21:20:41.980Z,58.40
2018-09-12T21:23:11.738Z,58.40
2018-09-12T21:25:43.130Z,58.50
2018-09-12T21:28:13.019Z,58.40
2018-09-12T21:30:43.617Z,58.40
2018-09-12T21:33:13.246Z,58.70
2018-09-12T21:35:41.984Z,58.70
2018-09-12T21:38:20.311Z,58.60
2018-09-12T21:40:54.842Z,58.50
2018-09-12T21:43:24.813Z,58.40
2018-09-12T21:45:53.419Z,58.40
2018-09-12T21:48:21.945Z,58.20
2018-09-12T21:50:50.562Z,58.30
2018-09-12T21:53:19.073Z,58.30
2018-09-12T21:55:47.603Z,58.40
2018-09-12T21:58:16.582Z,58.50
2018-09-12T22:00:45.731Z,58.50
2018-09-12T22:03:14.431Z,58.50
2018-09-12T22:05:43.010Z,58.40
2018-09-12T22:08:12.008Z,58.60
2018-09-12T22:10:40.915Z,58.40
2018-09-12T22:13:12.281Z,58.50
2018-09-12T22:15:41.232Z,58.60
2018-09-12T22:18:09.809Z,58.50
2018-09-12T22:20:38.700Z,58.50
2018-09-12T22:23:07.288Z,58.40
2018-09-12T22:25:35.862Z,58.50
2018-09-12T22:28:04.793Z,58.40
2018-09-12T22:30:33.356Z,58.50
2018-09-12T22:33:01.843Z,58.60
2018-09-12T22:35:30.318Z,58.50
2018-09-12T22:38:00.029Z,58.60
2018-09-12T22:40:28.883Z,58.70
2018-09-12T22:42:57.501Z,58.80
2018-09-12T22:45:30.535Z,58.90
2018-09-12T22:47:59.047Z,59.10
2018-09-12T22:50:27.604Z,59.10
2018-09-12T22:52:56.343Z,59.30
2018-09-12T22:55:25.006Z,59.30
2018-09-12T22:57:53.768Z,59.20
2018-09-12T23:00:22.520Z,59.30
2018-09-12T23:02:51.102Z,59.40
2018-09-12T23:05:19.616Z,59.50
2018-09-12T23:07:48.271Z,59.50
2018-09-12T23:10:16.835Z,59.50
2018-09-12T23:12:45.459Z,59.50
2018-09-12T23:15:14.038Z,59.60
2018-09-12T23:17:42.859Z,59.90
2018-09-12T23:20:11.473Z,59.80
2018-09-12T23:22:40.261Z,59.80
2018-09-12T23:25:09.056Z,59.80
2018-09-12T23:27:37.694Z,59.80
2018-09-12T23:30:06.161Z,59.80
2018-09-12T23:32:34.701Z,59.90
2018-09-12T23:35:03.225Z,59.90
2018-09-12T23:37:31.715Z,59.80
2018-09-12T23:40:00.225Z,59.70
2018-09-12T23:42:28.766Z,60.60
2018-09-12T23:44:57.271Z,59.80
2018-09-12T23:47:25.804Z,59.80
2018-09-12T23:49:54.878Z,59.90
2018-09-12T23:52:23.364Z,59.80
2018-09-12T23:54:51.868Z,59.90
2018-09-12T23:57:20.415Z,60.10
2018-09-12T23:59:48.933Z,60.00
